Flight Number: AVA1837 Duration: 1:15
Departure: Roma Fiumicino (LIRF) at 16:15 Distance: 378.928 Nm
Arrival: Lampedusa (LICD) at 17:30 Equipment: CRJ700

Weather Information
Roma Fiumicino, Italy (LIRF) 41-48N 012-14E 3M Mar 01, 2021 - 11:50 PM EST / 2021.03.02 0450 UTC
Wind: from the NE (050 degrees) at 5 MPH (4 KT):0
Visibility: greater than 7 mile(s):0 Temperature: 39 F (4 C) Dew Point: 33 F (1 C) Relative Humidity: 80% Pressure (altimeter): 30.39 in. Hg (1029 hPa)
ob: LIRF 020450Z 05004KT CAVOK 04/01 Q1029 NOSIG cycle: 5
Sunrise: 05:46 Sunset: 16:59 (UTC)

Lampedusa, Italy (LICD) 35-30N 012-36E 20M Mar 01, 2021 - 11:50 PM EST / 2021.03.02 0450 UTC
Wind: from the ESE (110 degrees) at 13 MPH (11 KT):0
Visibility: greater than 7 mile(s):0
Sky conditions: partly cloudy Temperature: 59 F (15 C) Dew Point: 55 F (13 C) Relative Humidity: 87% Pressure (altimeter): 30.33 in. Hg (1027 hPa)
ob: LICD 020450Z AUTO 11011KT 9999 SCT015/// 15/13 Q1027 cycle: 5
Sunrise: 05:39 Sunset: 17:03 (UTC)

TAF:2021/03/01 18:25 TAF LICD 011700Z 0118/0218 11012KT 9999 FEW020

This route has never been flown.

Route map